createdAt,value
2019-03-06T00:01:46.178Z,80.38
2019-03-06T00:04:16.698Z,80.40
2019-03-06T00:06:48.759Z,80.59
2019-03-06T00:09:19.291Z,80.52
2019-03-06T00:11:49.822Z,80.42
2019-03-06T00:14:20.337Z,80.82
2019-03-06T00:16:52.114Z,80.67
2019-03-06T00:19:22.640Z,80.92
2019-03-06T00:21:53.184Z,80.98
2019-03-06T00:24:25.858Z,81.08
2019-03-06T00:26:56.386Z,80.92
2019-03-06T00:29:26.903Z,80.98
2019-03-06T00:31:57.447Z,80.96
2019-03-06T00:34:27.960Z,80.79
2019-03-06T00:36:59.724Z,80.82
2019-03-06T00:39:33.125Z,81.14
2019-03-06T00:42:05.393Z,81.08
2019-03-06T00:44:36.844Z,81.12
2019-03-06T00:47:08.300Z,81.29
2019-03-06T00:49:40.096Z,81.29
2019-03-06T00:52:11.545Z,81.33
2019-03-06T00:54:42.986Z,81.37
2019-03-06T00:57:14.446Z,81.26
2019-03-06T00:59:44.966Z,81.28
2019-03-06T01:02:15.247Z,81.40
2019-03-06T01:04:45.721Z,81.59
2019-03-06T01:07:17.176Z,81.51
2019-03-06T01:09:48.627Z,81.46
2019-03-06T01:12:20.691Z,81.50
2019-03-06T01:14:51.032Z,81.59
2019-03-06T01:17:21.451Z,81.64
2019-03-06T01:19:52.903Z,81.59
2019-03-06T01:22:25.577Z,81.66
2019-03-06T01:24:57.252Z,81.79
2019-03-06T01:27:27.556Z,82.00
2019-03-06T01:29:59.004Z,81.95
2019-03-06T01:32:31.559Z,82.31
2019-03-06T01:35:06.504Z,82.31
2019-03-06T01:37:42.347Z,82.00
2019-03-06T01:40:21.352Z,82.35
2019-03-06T01:42:57.416Z,82.64
2019-03-06T01:45:27.696Z,82.53
2019-03-06T01:47:59.444Z,82.55
2019-03-06T01:50:31.192Z,82.64
2019-03-06T01:53:02.647Z,82.64
2019-03-06T01:55:33.173Z,82.93
2019-03-06T01:58:04.023Z,82.93
2019-03-06T02:00:37.014Z,82.88
2019-03-06T02:03:09.379Z,83.08
2019-03-06T02:05:40.829Z,83.09
2019-03-06T02:08:13.679Z,83.14
2019-03-06T02:10:44.031Z,83.14
2019-03-06T02:13:14.602Z,83.09
2019-03-06T02:15:45.094Z,83.02
2019-03-06T02:18:17.165Z,83.04
2019-03-06T02:20:47.694Z,83.05
2019-03-06T02:23:18.242Z,83.03
2019-03-06T02:25:49.687Z,82.97
2019-03-06T02:28:20.221Z,83.18
2019-03-06T02:30:50.731Z,82.99
2019-03-06T02:33:21.293Z,83.02
2019-03-06T02:35:52.719Z,83.02
2019-03-06T02:38:23.265Z,83.07
2019-03-06T02:40:53.772Z,83.19
2019-03-06T02:43:24.343Z,82.97
2019-03-06T02:45:55.453Z,82.73
2019-03-06T02:48:26.006Z,82.48
2019-03-06T02:50:56.508Z,82.48
2019-03-06T02:53:27.078Z,82.60
2019-03-06T02:55:58.795Z,82.82
2019-03-06T02:58:39.834Z,82.99
2019-03-06T03:01:14.959Z,83.08
2019-03-06T03:04:03.362Z,82.90
2019-03-06T03:06:38.092Z,82.97
2019-03-06T03:09:17.631Z,83.04
2019-03-06T03:11:48.037Z,83.04
2019-03-06T03:14:18.628Z,83.65
2019-03-06T03:16:49.091Z,83.31
2019-03-06T03:19:20.577Z,83.31
2019-03-06T03:21:52.001Z,83.56
2019-03-06T03:24:23.539Z,83.54
2019-03-06T03:26:53.997Z,83.54
2019-03-06T03:29:24.530Z,83.56
2019-03-06T03:31:55.075Z,83.20
2019-03-06T03:34:25.667Z,83.20
2019-03-06T03:36:56.127Z,82.96
2019-03-06T03:39:27.881Z,83.09
2019-03-06T03:41:59.335Z,83.28
2019-03-06T03:44:30.781Z,83.35
2019-03-06T03:47:03.467Z,82.98
2019-03-06T03:49:34.926Z,83.02
2019-03-06T03:52:07.285Z,83.02
2019-03-06T03:54:37.816Z,82.69
2019-03-06T03:57:09.265Z,82.67
2019-03-06T03:59:39.832Z,82.50
2019-03-06T04:02:10.324Z,82.47
2019-03-06T04:04:40.853Z,82.68
2019-03-06T04:07:13.226Z,82.78
2019-03-06T04:09:43.785Z,82.54
2019-03-06T04:12:15.212Z,82.53
2019-03-06T04:14:45.771Z,82.17
2019-03-06T04:17:17.494Z,82.17
2019-03-06T04:19:48.946Z,82.19
2019-03-06T04:22:21.332Z,81.74
2019-03-06T04:24:52.774Z,81.74
2019-03-06T04:27:24.192Z,82.12
2019-03-06T04:29:54.724Z,82.12
2019-03-06T04:32:25.284Z,82.06
2019-03-06T04:34:56.702Z,82.06
2019-03-06T04:37:29.075Z,82.20
2019-03-06T04:40:00.530Z,82.04
2019-03-06T04:42:31.975Z,81.87
2019-03-06T04:45:04.208Z,81.87
2019-03-06T04:47:34.575Z,81.97
2019-03-06T04:50:12.336Z,82.04
2019-03-06T04:52:44.237Z,81.99
2019-03-06T04:55:15.854Z,81.89
2019-03-06T04:57:46.207Z,82.11
2019-03-06T05:00:24.507Z,82.14
2019-03-06T05:02:54.954Z,82.10
2019-03-06T05:05:26.426Z,82.17
2019-03-06T05:07:57.860Z,82.26
2019-03-06T05:10:29.325Z,82.03
2019-03-06T05:13:00.463Z,82.03
2019-03-06T05:15:31.930Z,82.08
2019-03-06T05:18:07.913Z,81.98
2019-03-06T05:20:38.204Z,82.10
2019-03-06T05:23:09.655Z,82.01
2019-03-06T05:25:40.194Z,81.95
2019-03-06T05:28:12.541Z,82.01
2019-03-06T05:30:44.017Z,82.24
2019-03-06T05:33:17.083Z,82.28
2019-03-06T05:36:02.703Z,82.61
2019-03-06T05:38:39.355Z,82.36
2019-03-06T05:41:25.413Z,82.40
2019-03-06T05:43:59.350Z,82.29
2019-03-06T05:46:30.833Z,82.31
2019-03-06T05:49:03.087Z,82.12
2019-03-06T05:51:34.009Z,81.79
2019-03-06T05:54:04.538Z,81.61
2019-03-06T05:56:35.098Z,81.35
2019-03-06T05:59:06.518Z,81.22
2019-03-06T06:01:37.236Z,80.80
2019-03-06T06:04:08.506Z,80.41
2019-03-06T06:06:39.133Z,80.06
2019-03-06T06:09:09.556Z,79.55
2019-03-06T06:11:46.651Z,79.29
2019-03-06T06:14:17.456Z,78.31
2019-03-06T06:16:49.445Z,72.40
2019-03-06T06:19:19.980Z,65.81
2019-03-06T06:22:08.263Z,61.85
2019-03-06T06:24:38.601Z,59.05
2019-03-06T06:27:10.969Z,61.23
2019-03-06T06:29:41.464Z,64.60
2019-03-06T06:32:12.898Z,64.67
2019-03-06T06:34:43.419Z,60.78
2019-03-06T06:37:14.074Z,56.71
2019-03-06T06:39:44.489Z,53.52
2019-03-06T06:42:16.280Z,50.24
2019-03-06T06:44:47.697Z,47.73
2019-03-06T06:47:19.349Z,46.00
2019-03-06T06:49:49.675Z,47.04
2019-03-06T06:52:47.843Z,45.11
2019-03-06T06:55:33.041Z,43.94
2019-03-06T06:58:31.078Z,41.34
2019-03-06T07:01:09.003Z,42.19
2019-03-06T07:04:12.429Z,41.77
2019-03-06T07:06:49.996Z,42.34
2019-03-06T07:09:22.104Z,41.65
2019-03-06T07:12:00.291Z,40.23
2019-03-06T07:14:40.088Z,39.19
2019-03-06T07:17:12.126Z,39.57
2019-03-06T07:19:47.162Z,38.50
2019-03-06T07:22:22.694Z,37.64
2019-03-06T07:25:03.251Z,39.92
2019-03-06T07:27:42.407Z,41.20
2019-03-06T07:30:21.445Z,41.37
2019-03-06T07:33:12.211Z,41.30
2019-03-06T07:36:08.433Z,39.69
2019-03-06T07:38:38.859Z,39.81
2019-03-06T07:41:20.935Z,40.08
2019-03-06T07:43:52.921Z,40.11
2019-03-06T07:46:43.245Z,40.77
2019-03-06T07:49:28.535Z,40.04
2019-03-06T07:52:04.766Z,39.76
2019-03-06T07:54:36.829Z,40.51
2019-03-06T07:57:11.823Z,42.98
2019-03-06T07:59:42.084Z,43.99
2019-03-06T08:02:18.214Z,43.34
2019-03-06T08:04:53.707Z,42.11
2019-03-06T08:07:24.153Z,41.40
2019-03-06T08:09:55.573Z,40.02
2019-03-06T08:12:32.236Z,42.53
2019-03-06T08:15:08.991Z,40.75
2019-03-06T08:17:53.020Z,41.19
2019-03-06T08:20:30.046Z,40.82
2019-03-06T08:23:01.969Z,41.11
2019-03-06T08:25:34.780Z,41.04
2019-03-06T08:28:05.235Z,38.83
2019-03-06T08:30:56.688Z,38.25
2019-03-06T08:33:28.408Z,39.45
2019-03-06T08:35:59.848Z,38.86
2019-03-06T08:38:32.236Z,37.45
2019-03-06T08:41:04.630Z,37.44
2019-03-06T08:43:34.818Z,37.53
2019-03-06T08:46:18.931Z,37.07
2019-03-06T08:48:53.192Z,37.88
2019-03-06T08:51:43.663Z,38.00
2019-03-06T08:54:15.771Z,39.68
2019-03-06T08:56:47.811Z,43.33
2019-03-06T08:59:22.403Z,44.93
2019-03-06T09:02:15.540Z,46.57
2019-03-06T09:04:44.304Z,46.56
2019-03-06T09:07:16.659Z,48.54
2019-03-06T09:09:51.651Z,51.36
2019-03-06T09:12:27.516Z,51.22
2019-03-06T09:15:08.613Z,51.11
2019-03-06T09:17:55.555Z,51.93
2019-03-06T09:20:44.692Z,51.36
2019-03-06T09:23:28.472Z,51.89
2019-03-06T09:26:12.366Z,53.14
2019-03-06T09:29:01.313Z,53.35
2019-03-06T09:31:34.690Z,53.31
2019-03-06T09:34:13.804Z,52.90
2019-03-06T09:37:01.960Z,53.03
2019-03-06T09:39:36.794Z,51.98
2019-03-06T09:42:18.424Z,53.43
2019-03-06T09:44:52.813Z,53.84
2019-03-06T09:47:34.045Z,52.21
2019-03-06T09:50:10.885Z,52.01
2019-03-06T09:52:47.423Z,51.91
2019-03-06T09:55:19.449Z,50.80
2019-03-06T09:57:51.537Z,51.67
2019-03-06T10:00:35.508Z,51.39
2019-03-06T10:03:07.653Z,51.91
2019-03-06T10:05:40.929Z,51.21
2019-03-06T10:08:21.979Z,50.85
2019-03-06T10:10:57.581Z,50.98
2019-03-06T10:13:30.353Z,50.22
2019-03-06T10:16:09.574Z,50.14
2019-03-06T10:18:41.583Z,49.25
2019-03-06T10:21:13.179Z,49.89
2019-03-06T10:23:44.664Z,48.79
2019-03-06T10:26:16.083Z,50.03
2019-03-06T10:28:47.555Z,51.07
2019-03-06T10:31:18.402Z,50.13
2019-03-06T10:33:49.846Z,51.12
2019-03-06T10:36:21.272Z,49.97
2019-03-06T10:38:53.216Z,48.73
2019-03-06T10:41:23.893Z,47.97
2019-03-06T10:43:54.422Z,47.68
2019-03-06T10:46:24.969Z,48.00
2019-03-06T10:48:56.400Z,47.29
2019-03-06T10:51:27.838Z,47.89
2019-03-06T10:53:59.615Z,46.32
2019-03-06T10:56:31.044Z,46.41
2019-03-06T10:59:03.255Z,45.28
2019-03-06T11:01:33.645Z,47.33
2019-03-06T11:04:06.756Z,47.36
2019-03-06T11:06:37.160Z,46.45
2019-03-06T11:09:10.559Z,45.96
2019-03-06T11:11:41.008Z,45.61
2019-03-06T11:14:12.758Z,46.39
2019-03-06T11:16:43.886Z,46.01
2019-03-06T11:19:15.964Z,45.94
2019-03-06T11:21:46.488Z,45.20
2019-03-06T11:24:17.960Z,44.81
2019-03-06T11:26:49.376Z,44.79
2019-03-06T11:29:20.845Z,43.52
2019-03-06T11:31:52.276Z,42.50
2019-03-06T11:34:23.752Z,43.18
2019-03-06T11:36:55.186Z,41.94
2019-03-06T11:39:26.961Z,42.98
2019-03-06T11:41:58.394Z,43.02
2019-03-06T11:44:29.864Z,43.14
2019-03-06T11:47:01.400Z,42.30
2019-03-06T11:49:34.618Z,41.94
2019-03-06T11:52:05.124Z,42.30
2019-03-06T11:54:36.588Z,42.88
2019-03-06T11:57:07.247Z,43.18
2019-03-06T11:59:38.985Z,43.69
2019-03-06T12:02:09.700Z,42.69
2019-03-06T12:04:41.193Z,42.74
2019-03-06T12:07:11.689Z,42.74
2019-03-06T12:09:42.231Z,42.29
2019-03-06T12:12:13.656Z,41.51
2019-03-06T12:14:44.204Z,41.81
2019-03-06T12:17:15.952Z,42.38
2019-03-06T12:19:47.421Z,41.72
2019-03-06T12:22:17.976Z,42.27
2019-03-06T12:24:50.015Z,42.48
2019-03-06T12:27:20.349Z,41.43
2019-03-06T12:29:50.766Z,41.19
2019-03-06T12:32:22.196Z,41.80
2019-03-06T12:34:52.472Z,41.71
2019-03-06T12:37:22.958Z,41.51
2019-03-06T12:39:53.522Z,40.42
2019-03-06T12:42:25.236Z,39.97
2019-03-06T12:44:55.789Z,39.57
2019-03-06T12:47:26.316Z,39.59
2019-03-06T12:50:05.444Z,39.17
2019-03-06T12:52:30.846Z,38.92
2019-03-06T12:55:00.975Z,38.50
2019-03-06T12:57:31.500Z,37.94
2019-03-06T13:00:02.348Z,37.93
2019-03-06T13:02:33.166Z,37.87
2019-03-06T13:05:05.704Z,37.92
2019-03-06T13:07:36.068Z,37.32
2019-03-06T13:10:10.437Z,37.50
2019-03-06T13:12:40.830Z,37.71
2019-03-06T13:15:23.465Z,38.00
2019-03-06T13:17:55.817Z,37.26
2019-03-06T13:20:26.240Z,36.04
2019-03-06T13:22:57.681Z,35.56
2019-03-06T13:25:29.150Z,36.08
2019-03-06T13:27:59.408Z,36.83
2019-03-06T13:30:31.405Z,37.11
2019-03-06T13:33:15.750Z,37.90
2019-03-06T13:35:46.030Z,37.58
2019-03-06T13:38:16.290Z,37.88
2019-03-06T13:40:47.993Z,38.44
2019-03-06T13:43:18.524Z,38.91
2019-03-06T13:45:49.134Z,39.93
2019-03-06T13:48:20.484Z,39.66
2019-03-06T13:50:51.032Z,40.03
2019-03-06T13:53:21.559Z,39.59
2019-03-06T13:55:53.015Z,39.99
2019-03-06T13:58:23.523Z,39.88
2019-03-06T14:00:54.987Z,39.95
2019-03-06T14:03:25.522Z,40.10
2019-03-06T14:05:56.069Z,39.81
2019-03-06T14:08:26.569Z,39.47
2019-03-06T14:10:57.113Z,38.10
2019-03-06T14:13:28.554Z,37.92
2019-03-06T14:15:59.111Z,38.57
2019-03-06T14:18:30.219Z,37.54
2019-03-06T14:21:01.689Z,37.53
2019-03-06T14:23:47.796Z,37.31
2019-03-06T14:26:19.034Z,36.11
2019-03-06T14:29:02.870Z,36.08
2019-03-06T14:31:38.450Z,35.82
2019-03-06T14:34:08.739Z,37.00
2019-03-06T14:36:40.205Z,37.00
2019-03-06T14:39:25.265Z,37.03
2019-03-06T14:41:57.003Z,37.24
2019-03-06T14:44:27.434Z,37.64
2019-03-06T14:46:58.911Z,38.15
2019-03-06T14:49:30.573Z,39.11
2019-03-06T14:52:07.146Z,39.87
2019-03-06T14:54:34.464Z,40.47
2019-03-06T14:57:06.859Z,40.95
2019-03-06T14:59:37.378Z,41.17
2019-03-06T15:02:07.916Z,41.43
2019-03-06T15:04:39.349Z,40.43
2019-03-06T15:07:13.493Z,40.39
2019-03-06T15:09:46.865Z,39.60
2019-03-06T15:12:18.338Z,39.47
2019-03-06T15:14:50.093Z,39.86
2019-03-06T15:17:21.544Z,39.76
2019-03-06T15:19:53.055Z,40.16
2019-03-06T15:22:27.955Z,40.11
2019-03-06T15:25:01.408Z,40.22
2019-03-06T15:27:34.730Z,40.53
2019-03-06T15:30:08.302Z,40.86
2019-03-06T15:32:39.783Z,41.49
2019-03-06T15:35:12.727Z,41.62
2019-03-06T15:37:44.295Z,42.01
2019-03-06T15:40:33.073Z,42.62
2019-03-06T15:43:06.665Z,42.94
2019-03-06T15:45:40.014Z,43.30
2019-03-06T15:48:11.845Z,43.61
2019-03-06T15:50:45.972Z,44.01
2019-03-06T15:53:24.585Z,44.37
2019-03-06T15:55:52.757Z,44.87
2019-03-06T15:58:26.399Z,45.27
2019-03-06T16:01:00.676Z,45.12
2019-03-06T16:03:31.597Z,45.44
2019-03-06T16:06:03.031Z,45.76
2019-03-06T16:08:33.604Z,45.93
2019-03-06T16:11:06.695Z,46.29
2019-03-06T16:13:39.312Z,46.83
2019-03-06T16:16:11.002Z,47.16
2019-03-06T16:18:43.185Z,47.42
2019-03-06T16:21:14.514Z,47.57
2019-03-06T16:23:46.919Z,47.94
2019-03-06T16:26:18.324Z,48.28
2019-03-06T16:28:49.836Z,48.48
2019-03-06T16:31:20.337Z,48.71
2019-03-06T16:33:51.815Z,48.97
2019-03-06T16:36:23.387Z,48.87
2019-03-06T16:38:54.685Z,49.08
2019-03-06T16:41:24.946Z,49.08
2019-03-06T16:43:55.438Z,48.72
2019-03-06T16:46:26.872Z,49.04
2019-03-06T16:48:57.415Z,49.02
2019-03-06T16:51:28.843Z,48.92
2019-03-06T16:53:59.708Z,49.31
2019-03-06T16:56:31.436Z,49.34
2019-03-06T16:59:03.972Z,49.48
2019-03-06T17:01:37.414Z,49.63
2019-03-06T17:04:07.963Z,49.91
2019-03-06T17:06:39.431Z,50.11
2019-03-06T17:09:11.371Z,50.54
2019-03-06T17:11:44.662Z,50.61
2019-03-06T17:14:16.854Z,50.86
2019-03-06T17:16:49.083Z,51.15
2019-03-06T17:19:21.904Z,51.61
2019-03-06T17:21:52.422Z,51.87
2019-03-06T17:24:22.961Z,52.28
2019-03-06T17:26:53.991Z,52.61
2019-03-06T17:29:24.663Z,52.77
2019-03-06T17:31:54.925Z,53.15
2019-03-06T17:34:25.368Z,53.40
2019-03-06T17:36:55.814Z,53.63
2019-03-06T17:39:26.138Z,53.82
2019-03-06T17:41:57.566Z,53.69
2019-03-06T17:44:29.056Z,53.95
2019-03-06T17:46:59.335Z,53.79
2019-03-06T17:49:30.630Z,53.92
2019-03-06T17:52:00.931Z,53.93
2019-03-06T17:54:33.306Z,53.95
2019-03-06T17:57:04.791Z,53.56
2019-03-06T17:59:37.430Z,53.31
2019-03-06T18:02:07.951Z,53.58
2019-03-06T18:04:38.219Z,53.49
2019-03-06T18:07:09.639Z,53.42
2019-03-06T18:09:41.073Z,53.44
2019-03-06T18:12:17.040Z,53.06
2019-03-06T18:14:47.359Z,53.47
2019-03-06T18:17:17.646Z,53.31
2019-03-06T18:19:48.115Z,53.34
2019-03-06T18:22:19.614Z,53.52
2019-03-06T18:24:51.017Z,53.22
2019-03-06T18:27:26.371Z,53.44
2019-03-06T18:29:54.630Z,53.63
2019-03-06T18:32:25.609Z,53.78
2019-03-06T18:34:58.393Z,53.83
2019-03-06T18:37:30.443Z,54.10
2019-03-06T18:40:01.098Z,53.87
2019-03-06T18:42:34.769Z,54.03
2019-03-06T18:45:12.388Z,54.05
2019-03-06T18:47:45.273Z,53.85
2019-03-06T18:50:25.235Z,53.59
2019-03-06T18:52:55.772Z,53.57
2019-03-06T18:55:28.008Z,53.84
2019-03-06T18:57:58.728Z,53.57
2019-03-06T19:00:30.835Z,53.39
2019-03-06T19:03:02.143Z,53.68
2019-03-06T19:05:34.252Z,54.02
2019-03-06T19:08:06.500Z,54.06
2019-03-06T19:10:37.124Z,54.13
2019-03-06T19:13:08.769Z,54.29
2019-03-06T19:15:39.104Z,54.40
2019-03-06T19:18:09.379Z,54.40
2019-03-06T19:20:40.077Z,54.48
2019-03-06T19:23:12.044Z,54.68
2019-03-06T19:25:44.782Z,54.66
2019-03-06T19:28:15.116Z,54.97
2019-03-06T19:30:49.454Z,55.01
2019-03-06T19:33:19.887Z,55.11
2019-03-06T19:35:53.740Z,55.30
2019-03-06T19:38:25.228Z,55.38
2019-03-06T19:40:56.684Z,55.67
2019-03-06T19:43:28.148Z,55.69
2019-03-06T19:46:02.053Z,55.80
2019-03-06T19:48:38.423Z,55.91
2019-03-06T19:51:11.795Z,56.11
2019-03-06T19:53:42.651Z,56.45
2019-03-06T19:56:13.084Z,56.75
2019-03-06T19:58:44.648Z,56.75
2019-03-06T20:01:15.147Z,56.97
2019-03-06T20:03:45.872Z,56.98
2019-03-06T20:06:16.433Z,57.05
2019-03-06T20:08:47.566Z,57.08
2019-03-06T20:11:18.285Z,57.24
2019-03-06T20:13:50.148Z,57.38
2019-03-06T20:16:23.570Z,57.36
2019-03-06T20:18:55.303Z,57.35
2019-03-06T20:21:25.761Z,57.41
2019-03-06T20:23:58.105Z,57.57
2019-03-06T20:26:28.864Z,57.72
2019-03-06T20:28:59.171Z,57.66
2019-03-06T20:31:29.712Z,57.98
2019-03-06T20:34:00.225Z,58.24
2019-03-06T20:36:31.080Z,58.40
2019-03-06T20:39:01.581Z,58.41
2019-03-06T20:41:34.912Z,58.55
2019-03-06T20:44:06.077Z,58.84
2019-03-06T20:46:36.613Z,58.91
2019-03-06T20:49:08.346Z,59.29
2019-03-06T20:51:39.056Z,59.10
2019-03-06T20:54:10.311Z,59.32
2019-03-06T20:56:42.411Z,59.33
2019-03-06T20:59:12.943Z,59.38
2019-03-06T21:01:43.541Z,59.60
2019-03-06T21:04:17.264Z,59.65
2019-03-06T21:06:49.115Z,59.75
2019-03-06T21:09:20.549Z,59.63
2019-03-06T21:11:51.115Z,59.44
2019-03-06T21:14:23.101Z,59.40
2019-03-06T21:16:56.280Z,59.49
2019-03-06T21:19:27.596Z,59.50
2019-03-06T21:21:58.482Z,59.53
2019-03-06T21:24:30.178Z,59.42
2019-03-06T21:27:02.730Z,59.28
2019-03-06T21:29:33.689Z,59.30
2019-03-06T21:32:05.158Z,59.49
2019-03-06T21:34:36.891Z,59.21
2019-03-06T21:37:07.519Z,59.20
2019-03-06T21:39:38.261Z,59.26
2019-03-06T21:42:08.901Z,59.15
2019-03-06T21:44:39.338Z,59.27
2019-03-06T21:47:10.819Z,59.39
2019-03-06T21:49:42.256Z,59.40
2019-03-06T21:52:14.619Z,59.49
2019-03-06T21:54:46.412Z,59.65
2019-03-06T21:57:22.962Z,59.69
2019-03-06T22:00:01.167Z,59.95
2019-03-06T22:02:33.608Z,59.98
2019-03-06T22:05:06.049Z,60.07
2019-03-06T22:07:36.519Z,60.01
2019-03-06T22:10:12.031Z,59.92
2019-03-06T22:12:48.569Z,60.01
2019-03-06T22:15:22.089Z,60.10
2019-03-06T22:17:54.023Z,60.18
2019-03-06T22:20:25.097Z,60.26
2019-03-06T22:22:55.703Z,60.29
2019-03-06T22:25:28.349Z,60.46
2019-03-06T22:28:00.728Z,60.41
2019-03-06T22:30:32.199Z,60.53
2019-03-06T22:33:02.739Z,60.45
2019-03-06T22:35:32.977Z,60.76
2019-03-06T22:38:06.439Z,60.84
2019-03-06T22:40:45.500Z,60.84
2019-03-06T22:43:17.423Z,60.77
2019-03-06T22:45:49.805Z,61.19
2019-03-06T22:48:21.561Z,61.06
2019-03-06T22:50:52.999Z,61.35
2019-03-06T22:53:23.538Z,61.77
2019-03-06T22:55:54.968Z,61.68
2019-03-06T22:58:25.520Z,61.71
2019-03-06T23:00:59.951Z,61.81
2019-03-06T23:03:31.819Z,61.58
2019-03-06T23:06:04.228Z,61.73
2019-03-06T23:08:34.711Z,61.76
2019-03-06T23:11:06.134Z,61.81
2019-03-06T23:13:38.531Z,62.03
2019-03-06T23:16:08.780Z,61.98
2019-03-06T23:18:39.281Z,62.18
2019-03-06T23:21:09.801Z,62.32
2019-03-06T23:23:41.585Z,62.32
2019-03-06T23:26:12.076Z,62.34
2019-03-06T23:28:43.551Z,62.38
2019-03-06T23:31:14.985Z,62.40
2019-03-06T23:33:46.450Z,62.32
2019-03-06T23:36:17.881Z,62.51
2019-03-06T23:38:48.133Z,62.62
2019-03-06T23:41:19.558Z,62.75
2019-03-06T23:43:51.007Z,62.89
2019-03-06T23:46:21.543Z,63.16
2019-03-06T23:48:52.067Z,63.15
2019-03-06T23:51:25.157Z,63.36
2019-03-06T23:53:55.586Z,63.30
2019-03-06T23:56:26.116Z,63.33
2019-03-06T23:58:59.411Z,63.52
